createdAt,value
2022-12-08T00:01:45.841Z,1.06
2022-12-08T00:04:17.599Z,1.06
2022-12-08T00:07:21.578Z,1.21
2022-12-08T00:09:53.146Z,1.17
2022-12-08T00:12:24.852Z,1.35
2022-12-08T00:14:56.737Z,1.42
2022-12-08T00:17:28.937Z,1.49
2022-12-08T00:20:00.628Z,1.30
2022-12-08T00:22:32.974Z,1.30
2022-12-08T00:25:05.312Z,1.14
2022-12-08T00:27:37.319Z,1.03
2022-12-08T00:30:12.054Z,1.05
2022-12-08T00:32:43.675Z,1.08
2022-12-08T00:35:15.462Z,1.04
2022-12-08T00:37:47.146Z,1.10
2022-12-08T00:40:19.369Z,1.04
2022-12-08T00:42:51.110Z,0.99
2022-12-08T00:45:22.828Z,1.03
2022-12-08T00:47:54.667Z,0.97
2022-12-08T00:50:26.259Z,0.92
2022-12-08T00:52:57.874Z,1.05
2022-12-08T00:55:29.621Z,0.99
2022-12-08T00:58:01.257Z,0.89
2022-12-08T01:00:32.976Z,0.96
2022-12-08T01:03:05.122Z,0.85
2022-12-08T01:05:36.738Z,1.07
2022-12-08T01:08:09.973Z,1.20
2022-12-08T01:10:41.639Z,1.27
2022-12-08T01:13:13.297Z,1.33
2022-12-08T01:15:45.113Z,1.36
2022-12-08T01:18:16.967Z,1.34
2022-12-08T01:20:49.925Z,1.36
2022-12-08T01:23:21.525Z,1.32
2022-12-08T01:25:53.608Z,1.28
2022-12-08T01:28:25.223Z,1.30
2022-12-08T01:30:56.928Z,1.33
2022-12-08T01:33:29.447Z,1.35
2022-12-08T01:36:05.798Z,1.38
2022-12-08T01:38:37.660Z,1.34
2022-12-08T01:41:10.976Z,1.19
2022-12-08T01:44:01.187Z,1.23
2022-12-08T01:46:35.736Z,1.20
2022-12-08T01:49:12.298Z,1.22
2022-12-08T01:51:48.316Z,1.27
2022-12-08T01:54:22.816Z,1.16
2022-12-08T01:57:00.117Z,1.03
2022-12-08T01:59:34.145Z,0.87
2022-12-08T02:02:06.617Z,1.02
2022-12-08T02:04:38.902Z,1.06
2022-12-08T02:07:13.495Z,1.13
2022-12-08T02:09:46.269Z,0.94
2022-12-08T02:12:18.308Z,0.97
2022-12-08T02:14:50.009Z,1.07
2022-12-08T02:17:40.111Z,1.15
2022-12-08T02:20:42.061Z,1.14
2022-12-08T02:23:24.808Z,0.94
2022-12-08T02:26:17.851Z,0.91
2022-12-08T02:28:58.901Z,1.07
2022-12-08T02:31:45.975Z,0.93
2022-12-08T02:34:26.366Z,0.98
2022-12-08T02:37:05.512Z,1.08
2022-12-08T02:39:45.897Z,1.10
2022-12-08T02:42:27.063Z,1.08
2022-12-08T02:45:06.324Z,0.96
2022-12-08T02:47:38.858Z,0.89
2022-12-08T02:50:10.507Z,0.97
2022-12-08T02:52:44.941Z,0.96
2022-12-08T02:55:28.981Z,0.99
2022-12-08T02:58:18.239Z,1.03
2022-12-08T03:01:11.956Z,1.04
2022-12-08T03:03:52.081Z,1.07
2022-12-08T03:06:32.353Z,1.06
2022-12-08T03:09:11.277Z,0.92
2022-12-08T03:11:49.287Z,1.00
2022-12-08T03:14:22.915Z,1.02
2022-12-08T03:16:59.589Z,1.05
2022-12-08T03:19:36.424Z,0.99
2022-12-08T03:22:10.330Z,0.98
2022-12-08T03:24:45.031Z,1.00
2022-12-08T03:27:19.943Z,1.02
2022-12-08T03:29:54.947Z,1.03
2022-12-08T03:32:31.547Z,1.00
2022-12-08T03:35:05.071Z,1.04
2022-12-08T03:37:39.158Z,0.89
2022-12-08T03:40:15.099Z,0.84
2022-12-08T03:42:46.956Z,0.97
2022-12-08T03:45:19.112Z,1.01
2022-12-08T03:47:50.936Z,0.90
2022-12-08T03:50:24.273Z,0.85
2022-12-08T03:52:56.080Z,0.83
2022-12-08T03:55:28.520Z,0.83
2022-12-08T03:58:00.264Z,0.84
2022-12-08T04:00:32.050Z,0.92
2022-12-08T04:03:04.707Z,0.97
2022-12-08T04:05:36.763Z,1.01
2022-12-08T04:08:08.767Z,1.04
2022-12-08T04:10:40.504Z,0.92
2022-12-08T04:13:12.051Z,0.98
2022-12-08T04:15:47.444Z,1.06
2022-12-08T04:18:19.925Z,1.07
2022-12-08T04:20:51.517Z,1.08
2022-12-08T04:23:23.291Z,1.15
2022-12-08T04:25:55.678Z,1.15
2022-12-08T04:28:29.443Z,0.98
2022-12-08T04:31:01.307Z,1.01
2022-12-08T04:33:33.145Z,1.07
2022-12-08T04:36:05.669Z,1.05
2022-12-08T04:38:37.701Z,1.12
2022-12-08T04:41:09.904Z,1.11
2022-12-08T04:43:44.211Z,1.12
2022-12-08T04:46:15.930Z,1.06
2022-12-08T04:48:47.917Z,1.06
2022-12-08T04:51:21.077Z,1.00
2022-12-08T04:53:52.767Z,0.97
2022-12-08T04:56:24.737Z,1.02
2022-12-08T04:58:56.566Z,1.12
2022-12-08T05:01:28.267Z,1.12
2022-12-08T05:04:00.452Z,0.95
2022-12-08T05:06:32.204Z,0.95
2022-12-08T05:09:03.868Z,1.09
2022-12-08T05:11:35.839Z,1.07
2022-12-08T05:14:09.864Z,1.07
2022-12-08T05:16:41.563Z,1.11
2022-12-08T05:19:14.094Z,1.10
2022-12-08T05:21:46.146Z,1.16
2022-12-08T05:24:18.004Z,1.20
2022-12-08T05:26:50.217Z,1.25
2022-12-08T05:29:21.855Z,1.22
2022-12-08T05:31:53.628Z,1.25
2022-12-08T05:34:25.433Z,1.32
2022-12-08T05:36:57.379Z,1.29
2022-12-08T05:39:29.122Z,1.29
2022-12-08T05:42:00.747Z,1.28
2022-12-08T05:44:32.453Z,1.31
2022-12-08T05:47:04.123Z,1.34
2022-12-08T05:49:36.587Z,1.37
2022-12-08T05:52:08.747Z,1.41
2022-12-08T05:54:40.779Z,1.46
2022-12-08T05:57:12.811Z,1.50
2022-12-08T05:59:44.516Z,1.53
2022-12-08T06:02:16.321Z,1.53
2022-12-08T06:04:48.709Z,1.57
2022-12-08T06:07:20.516Z,1.59
2022-12-08T06:09:52.494Z,1.62
2022-12-08T06:12:24.213Z,1.64
2022-12-08T06:14:56.091Z,1.71
2022-12-08T06:17:27.779Z,1.73
2022-12-08T06:19:59.580Z,1.71
2022-12-08T06:22:31.323Z,1.75
2022-12-08T06:25:06.049Z,1.74
2022-12-08T06:27:40.421Z,1.77
2022-12-08T06:30:12.893Z,1.79
2022-12-08T06:32:45.158Z,1.79
2022-12-08T06:35:16.783Z,1.80
2022-12-08T06:37:48.538Z,1.85
2022-12-08T06:40:20.397Z,1.84
2022-12-08T06:42:52.187Z,1.89
2022-12-08T06:45:24.103Z,1.89
2022-12-08T06:47:55.654Z,1.94
2022-12-08T06:50:27.374Z,1.95
2022-12-08T06:53:05.245Z,1.95
2022-12-08T06:58:29.910Z,1.99
2022-12-08T07:01:06.761Z,1.95
2022-12-08T07:03:39.671Z,1.97
2022-12-08T07:06:17.737Z,1.99
2022-12-08T07:08:49.476Z,2.00
2022-12-08T07:11:22.607Z,2.01
2022-12-08T07:13:56.704Z,1.94
2022-12-08T07:16:28.316Z,2.01
2022-12-08T07:19:00.328Z,2.05
2022-12-08T07:21:32.490Z,2.00
2022-12-08T07:24:04.111Z,1.96
2022-12-08T07:26:36.306Z,2.02
2022-12-08T07:29:08.880Z,2.06
2022-12-08T07:31:40.557Z,2.08
2022-12-08T07:34:13.749Z,2.11
2022-12-08T07:36:45.439Z,2.08
2022-12-08T07:39:17.226Z,2.11
2022-12-08T07:41:48.919Z,2.12
2022-12-08T07:44:20.665Z,2.16
2022-12-08T07:46:52.240Z,2.18
2022-12-08T07:49:24.316Z,2.17
2022-12-08T07:51:55.957Z,2.18
2022-12-08T07:54:28.356Z,2.19
2022-12-08T07:57:01.098Z,2.20
2022-12-08T07:59:33.259Z,2.17
2022-12-08T08:02:23.508Z,2.21
2022-12-08T08:04:56.392Z,2.20
2022-12-08T08:07:28.056Z,2.25
2022-12-08T08:09:59.685Z,2.29
2022-12-08T08:12:32.532Z,2.34
2022-12-08T08:15:07.330Z,2.35
2022-12-08T08:17:40.086Z,2.38
2022-12-08T08:20:13.760Z,2.39
2022-12-08T08:22:46.288Z,2.39
2022-12-08T08:25:19.745Z,2.39
2022-12-08T08:27:51.952Z,2.40
2022-12-08T08:30:24.118Z,2.36
2022-12-08T08:32:56.078Z,2.38
2022-12-08T08:35:27.725Z,2.42
2022-12-08T08:37:59.363Z,2.43
2022-12-08T08:40:30.980Z,2.46
2022-12-08T08:43:04.629Z,2.44
2022-12-08T08:45:36.714Z,2.47
2022-12-08T08:48:08.853Z,2.52
2022-12-08T08:50:40.732Z,2.55
2022-12-08T08:53:12.552Z,2.56
2022-12-08T08:55:44.111Z,2.59
2022-12-08T08:58:15.839Z,2.60
2022-12-08T09:00:50.956Z,2.62
2022-12-08T09:03:22.676Z,2.64
2022-12-08T09:05:55.880Z,2.63
2022-12-08T09:08:27.827Z,2.67
2022-12-08T09:10:59.751Z,2.71
2022-12-08T09:13:31.457Z,2.74
2022-12-08T09:16:04.726Z,2.79
2022-12-08T09:18:36.863Z,2.74
2022-12-08T09:21:11.518Z,2.69
2022-12-08T09:23:43.610Z,2.77
2022-12-08T09:26:15.382Z,2.70
2022-12-08T09:28:47.679Z,2.69
2022-12-08T09:31:21.506Z,2.88
2022-12-08T09:33:53.762Z,2.81
2022-12-08T09:36:25.835Z,2.86
2022-12-08T09:38:57.817Z,2.85
2022-12-08T09:41:39.219Z,3.04
2022-12-08T09:44:21.044Z,3.13
2022-12-08T09:46:55.605Z,3.12
2022-12-08T09:49:36.687Z,3.23
2022-12-08T09:52:21.262Z,3.21
2022-12-08T09:54:53.387Z,3.12
2022-12-08T09:57:26.913Z,3.13
2022-12-08T10:00:04.302Z,3.24
2022-12-08T10:02:37.029Z,3.16
2022-12-08T10:05:13.851Z,3.17
2022-12-08T10:07:49.251Z,3.14
2022-12-08T10:10:34.731Z,3.15
2022-12-08T10:13:16.681Z,3.14
2022-12-08T10:15:54.392Z,3.25
2022-12-08T10:18:30.665Z,3.35
2022-12-08T10:21:18.187Z,3.30
2022-12-08T10:23:52.863Z,3.35
2022-12-08T10:26:24.902Z,3.43
2022-12-08T10:29:01.294Z,3.47
2022-12-08T10:31:34.069Z,3.49
2022-12-08T10:34:18.602Z,3.37
2022-12-08T10:36:53.107Z,3.46
2022-12-08T10:39:37.997Z,3.38
2022-12-08T10:42:22.587Z,3.37
2022-12-08T10:45:05.673Z,3.33
2022-12-08T10:47:44.853Z,3.07
2022-12-08T10:50:30.177Z,3.25
2022-12-08T10:53:03.506Z,3.30
2022-12-08T10:55:44.068Z,3.22
2022-12-08T10:58:33.713Z,3.23
2022-12-08T11:01:12.132Z,3.30
2022-12-08T11:03:48.866Z,3.39
2022-12-08T11:06:24.883Z,3.34
2022-12-08T11:08:58.377Z,3.18
2022-12-08T11:11:45.850Z,3.32
2022-12-08T11:14:23.922Z,3.36
2022-12-08T11:17:03.501Z,3.48
2022-12-08T11:19:39.952Z,3.40
2022-12-08T11:22:25.707Z,3.40
2022-12-08T11:25:03.491Z,3.48
2022-12-08T11:27:36.905Z,3.59
2022-12-08T11:30:26.620Z,3.60
2022-12-08T11:33:02.565Z,3.68
2022-12-08T11:35:39.310Z,3.65
2022-12-08T11:38:21.657Z,3.55
2022-12-08T11:40:56.716Z,3.54
2022-12-08T11:43:37.346Z,3.62
2022-12-08T11:46:17.721Z,3.64
2022-12-08T11:48:54.561Z,3.68
2022-12-08T11:51:33.297Z,3.72
2022-12-08T11:54:15.977Z,3.84
2022-12-08T11:56:52.348Z,3.85
2022-12-08T11:59:30.957Z,3.89
2022-12-08T12:02:05.524Z,4.02
2022-12-08T12:04:42.454Z,3.95
2022-12-08T12:07:48.231Z,4.00
2022-12-08T12:10:35.090Z,3.95
2022-12-08T12:13:31.434Z,3.91
2022-12-08T12:16:24.586Z,3.91
2022-12-08T12:19:00.557Z,3.87
2022-12-08T12:21:39.373Z,3.92
2022-12-08T12:24:22.244Z,3.96
2022-12-08T12:27:01.246Z,3.97
2022-12-08T12:29:35.046Z,3.94
2022-12-08T12:32:09.800Z,4.03
2022-12-08T12:34:49.760Z,4.13
2022-12-08T12:37:24.990Z,4.16
2022-12-08T12:40:02.927Z,4.16
2022-12-08T12:42:45.179Z,4.11
2022-12-08T12:45:32.904Z,4.10
2022-12-08T12:48:25.158Z,3.98
2022-12-08T12:50:57.371Z,4.10
2022-12-08T12:53:54.953Z,4.20
2022-12-08T12:56:50.834Z,4.15
2022-12-08T12:59:36.772Z,4.35
2022-12-08T13:02:19.194Z,4.50
2022-12-08T13:04:59.983Z,4.47
2022-12-08T13:07:35.046Z,4.35
2022-12-08T13:10:18.173Z,4.45
2022-12-08T13:13:06.776Z,4.62
2022-12-08T13:15:41.170Z,4.65
2022-12-08T13:18:22.673Z,4.49
2022-12-08T13:21:03.912Z,4.35
2022-12-08T13:23:51.060Z,4.25
2022-12-08T13:26:25.194Z,4.35
2022-12-08T13:29:20.481Z,4.43
2022-12-08T13:31:55.854Z,4.32
2022-12-08T13:34:35.603Z,4.38
2022-12-08T13:37:27.229Z,4.40
2022-12-08T13:40:03.767Z,4.41
2022-12-08T13:42:44.793Z,4.49
2022-12-08T13:45:59.017Z,4.56
2022-12-08T13:48:31.151Z,4.59
2022-12-08T13:57:25.519Z,4.55
2022-12-08T14:00:03.069Z,4.57
2022-12-08T14:02:48.536Z,4.57
2022-12-08T14:05:40.661Z,4.57
2022-12-08T14:08:58.364Z,4.60
2022-12-08T14:11:35.355Z,4.59
2022-12-08T14:14:10.711Z,4.58
2022-12-08T14:16:46.328Z,4.61
2022-12-08T14:19:21.181Z,4.61
2022-12-08T14:21:59.873Z,4.48
2022-12-08T14:24:33.421Z,4.50
2022-12-08T14:27:07.512Z,4.51
2022-12-08T14:29:47.404Z,4.56
2022-12-08T14:32:34.679Z,4.57
2022-12-08T14:35:23.102Z,4.53
2022-12-08T14:37:58.526Z,4.48
2022-12-08T14:40:34.876Z,4.49
2022-12-08T14:43:17.860Z,4.52
2022-12-08T14:45:55.426Z,4.49
2022-12-08T14:48:40.797Z,4.48
2022-12-08T14:51:20.952Z,4.49
2022-12-08T14:53:58.599Z,4.47
2022-12-08T14:56:37.282Z,4.46
2022-12-08T14:59:16.372Z,4.45
2022-12-08T15:01:50.162Z,4.46
2022-12-08T15:04:25.675Z,4.47
2022-12-08T15:07:06.119Z,4.45
2022-12-08T15:09:41.867Z,4.42
2022-12-08T15:12:27.256Z,4.43
2022-12-08T15:15:02.432Z,4.41
2022-12-08T15:17:42.844Z,4.42
2022-12-08T15:20:35.097Z,4.39
2022-12-08T15:23:07.952Z,4.38
2022-12-08T15:25:40.903Z,4.39
2022-12-08T15:28:15.236Z,4.41
2022-12-08T15:30:47.671Z,4.41
2022-12-08T15:33:19.562Z,4.41
2022-12-08T15:35:51.965Z,4.38
2022-12-08T15:38:26.738Z,4.37
2022-12-08T15:40:59.599Z,4.40
2022-12-08T15:43:33.701Z,4.39
2022-12-08T15:46:07.384Z,4.35
2022-12-08T15:48:40.650Z,4.33
2022-12-08T15:51:12.634Z,4.31
2022-12-08T15:53:44.336Z,4.32
2022-12-08T15:56:27.384Z,4.32
2022-12-08T15:59:00.223Z,4.33
2022-12-08T16:01:31.870Z,4.33
2022-12-08T16:09:47.921Z,4.39
2022-12-08T16:13:34.042Z,4.40
2022-12-08T16:16:01.692Z,4.39
2022-12-08T16:18:27.986Z,4.37
2022-12-08T16:23:52.163Z,4.37
2022-12-08T16:29:19.484Z,4.39
2022-12-08T16:31:52.936Z,4.36
2022-12-08T16:34:24.704Z,4.40
2022-12-08T16:36:56.375Z,4.39
2022-12-08T16:39:28.198Z,4.40
2022-12-08T16:42:17.713Z,4.37
2022-12-08T16:44:49.618Z,4.38
2022-12-08T16:47:21.413Z,4.40
2022-12-08T16:49:53.449Z,4.40
2022-12-08T16:52:25.237Z,4.38
2022-12-08T16:54:57.595Z,4.35
2022-12-08T16:57:29.342Z,4.38
2022-12-08T17:00:00.986Z,4.30
2022-12-08T17:02:33.006Z,4.36
2022-12-08T17:05:06.631Z,4.38
2022-12-08T17:07:38.908Z,4.38
2022-12-08T17:10:14.504Z,4.38
2022-12-08T17:12:48.305Z,4.39
2022-12-08T17:15:23.858Z,4.37
2022-12-08T17:17:56.034Z,4.39
2022-12-08T17:20:29.746Z,4.36
2022-12-08T17:23:01.589Z,4.35
2022-12-08T17:25:33.477Z,4.32
2022-12-08T17:28:05.264Z,4.35
2022-12-08T17:30:36.844Z,4.35
2022-12-08T17:33:08.900Z,4.33
2022-12-08T17:35:40.661Z,4.33
2022-12-08T17:38:12.394Z,4.35
2022-12-08T17:40:45.517Z,4.32
2022-12-08T17:43:18.333Z,4.30
2022-12-08T17:45:50.993Z,4.28
2022-12-08T17:48:21.222Z,4.27
2022-12-08T17:50:53.507Z,4.28
2022-12-08T17:53:25.568Z,4.28
2022-12-08T17:55:59.603Z,4.25
2022-12-08T17:58:32.134Z,4.25
2022-12-08T18:01:10.210Z,4.23
2022-12-08T18:03:42.516Z,4.26
2022-12-08T18:06:15.073Z,4.27
2022-12-08T18:08:45.373Z,4.24
2022-12-08T18:11:19.557Z,4.24
2022-12-08T18:13:52.910Z,4.28
2022-12-08T18:16:27.451Z,4.27
2022-12-08T18:18:59.259Z,4.27
2022-12-08T18:21:31.274Z,4.28
2022-12-08T18:24:03.834Z,4.12
2022-12-08T18:26:34.629Z,4.20
2022-12-08T18:29:06.658Z,4.05
2022-12-08T18:31:38.349Z,4.07
2022-12-08T18:34:10.278Z,4.20
2022-12-08T18:36:42.727Z,4.14
2022-12-08T18:39:24.229Z,4.09
2022-12-08T18:41:57.915Z,4.09
2022-12-08T18:44:30.790Z,4.13
2022-12-08T18:47:02.573Z,4.13
2022-12-08T18:49:34.205Z,4.17
2022-12-08T18:52:06.410Z,4.15
2022-12-08T18:57:30.796Z,4.24
2022-12-08T19:00:03.328Z,4.22
2022-12-08T19:02:36.204Z,4.19
2022-12-08T19:05:07.253Z,4.05
2022-12-08T19:07:39.098Z,3.85
2022-12-08T19:10:12.551Z,3.85
2022-12-08T19:12:44.724Z,3.81
2022-12-08T19:15:16.954Z,3.81
2022-12-08T19:17:48.989Z,3.76
2022-12-08T19:20:20.973Z,3.80
2022-12-08T19:22:52.727Z,3.77
2022-12-08T19:25:24.920Z,3.78
2022-12-08T19:27:57.000Z,3.70
2022-12-08T19:30:28.826Z,3.71
2022-12-08T19:33:00.631Z,3.81
2022-12-08T19:35:32.392Z,3.91
2022-12-08T19:38:04.372Z,4.00
2022-12-08T19:40:53.921Z,4.06
2022-12-08T19:43:43.119Z,4.11
2022-12-08T19:46:16.572Z,4.17
2022-12-08T19:48:48.419Z,4.21
2022-12-08T19:51:20.169Z,4.16
2022-12-08T19:53:51.941Z,4.16
2022-12-08T19:56:23.989Z,4.05
2022-12-08T19:58:55.981Z,4.07
2022-12-08T20:01:28.278Z,4.13
2022-12-08T20:04:00.943Z,4.14
2022-12-08T20:06:33.659Z,4.17
2022-12-08T20:09:07.547Z,4.20
2022-12-08T20:11:40.913Z,4.16
2022-12-08T20:17:26.697Z,4.16
2022-12-08T20:20:01.559Z,4.19
2022-12-08T20:22:37.385Z,4.19
2022-12-08T20:25:13.073Z,4.23
2022-12-08T20:27:45.841Z,4.17
2022-12-08T20:30:17.612Z,3.91
2022-12-08T20:32:49.434Z,3.94
2022-12-08T20:35:21.127Z,3.97
2022-12-08T20:37:52.896Z,3.85
2022-12-08T20:40:27.649Z,3.70
2022-12-08T20:42:59.478Z,3.73
2022-12-08T20:45:31.326Z,3.73
2022-12-08T20:48:03.257Z,3.46
2022-12-08T20:50:35.262Z,3.51
2022-12-08T20:53:07.920Z,3.47
2022-12-08T20:55:43.195Z,3.49
2022-12-08T20:58:15.378Z,3.52
2022-12-08T21:00:47.831Z,3.47
2022-12-08T21:03:19.865Z,3.23
2022-12-08T21:05:53.212Z,3.21
2022-12-08T21:08:28.200Z,3.26
2022-12-08T21:11:00.246Z,3.23
2022-12-08T21:13:32.372Z,3.34
2022-12-08T21:16:04.930Z,3.46
2022-12-08T21:18:39.491Z,3.49
2022-12-08T21:21:14.337Z,3.59
2022-12-08T21:23:46.626Z,3.52
2022-12-08T21:26:21.688Z,3.39
2022-12-08T21:28:54.726Z,3.33
2022-12-08T21:31:29.281Z,3.21
2022-12-08T21:34:02.170Z,3.30
2022-12-08T21:36:34.812Z,3.44
2022-12-08T21:39:12.435Z,3.53
2022-12-08T21:42:01.923Z,3.46
2022-12-08T21:44:35.438Z,3.24
2022-12-08T21:47:07.945Z,3.12
2022-12-08T21:49:39.783Z,3.33
2022-12-08T21:52:11.725Z,3.47
2022-12-08T21:54:43.759Z,3.52
2022-12-08T21:57:15.678Z,3.33
2022-12-08T21:59:47.491Z,3.17
2022-12-08T22:02:22.487Z,3.13
2022-12-08T22:04:57.891Z,3.10
2022-12-08T22:07:29.750Z,3.17
2022-12-08T22:10:01.891Z,3.11
2022-12-08T22:12:33.674Z,3.12
2022-12-08T22:15:06.849Z,3.04
2022-12-08T22:17:40.574Z,3.05
2022-12-08T22:20:15.050Z,3.09
2022-12-08T22:22:47.303Z,3.03
2022-12-08T22:25:19.191Z,3.04
2022-12-08T22:27:54.403Z,3.27
2022-12-08T22:30:26.308Z,3.37
2022-12-08T22:32:58.869Z,3.32
2022-12-08T22:35:30.855Z,3.21
2022-12-08T22:38:02.725Z,3.16
2022-12-08T22:40:34.617Z,3.10
2022-12-08T22:43:06.391Z,3.20
2022-12-08T22:45:38.305Z,3.34
2022-12-08T22:48:10.642Z,3.39
2022-12-08T22:50:43.051Z,3.45
2022-12-08T22:53:15.480Z,3.31
2022-12-08T22:55:47.671Z,3.20
2022-12-08T22:58:19.862Z,3.38
2022-12-08T23:00:51.758Z,3.30
2022-12-08T23:03:23.748Z,3.44
2022-12-08T23:05:56.053Z,3.54
2022-12-08T23:08:28.225Z,3.59
2022-12-08T23:11:00.226Z,3.51
2022-12-08T23:13:31.979Z,3.32
2022-12-08T23:16:03.655Z,3.11
2022-12-08T23:18:35.369Z,3.15
2022-12-08T23:21:10.088Z,3.03
2022-12-08T23:23:41.991Z,3.06
2022-12-08T23:26:21.272Z,3.21
2022-12-08T23:28:53.545Z,3.28
2022-12-08T23:31:26.337Z,3.25
2022-12-08T23:33:58.762Z,3.16
2022-12-08T23:36:31.567Z,3.15
2022-12-08T23:39:03.330Z,3.37
2022-12-08T23:41:35.282Z,3.45
2022-12-08T23:44:09.099Z,3.19
2022-12-08T23:46:41.176Z,3.21
2022-12-08T23:49:13.042Z,3.19
2022-12-08T23:51:44.724Z,3.21
2022-12-08T23:54:16.879Z,3.23
2022-12-08T23:56:48.572Z,3.27
2022-12-08T23:59:20.491Z,3.15
